Rechercher aéroport 
image banner adimage banner adimage banner ad
image banner ad

9N3 - Seamans Field

Situé à Factoryville, United States

ICAO - 9N3, IATA -

Données fournies par Airmate  

Information générale

Coordonnées: N41°35'22" W75°45'22"
Élévation : 1209 feet MSL.
Variation magnétique : -12° East
Voir autres Aéroports à Pennsylvania

Données opérationnelles

Special qualification required
Heure actuelle UTC:
Heure actuelle locale:
Météo à : KAVP - Wilkes-Barre/Scranton Intl ( 28 km )
METAR: KAVP 131903Z 24006KT 10SM SCT023 SCT048 24/18 A2989 RMK AO2 T02440183
TAF: KAVP 131740Z 1318/1418 24006KT P6SM SCT018 BKN035 TEMPO 1318/1319 BKN018 BKN035 FM131900 23006KT P6SM SCT035 FM132200 19005KT P6SM VCTS SCT035CB TEMPO 1322/1402 3SM TSRA BR OVC030CB FM140200 17008KT 6SM -SHRA BR BKN016 OVC025 FM140800 20004KT 5SM BR VCSH BKN007 FM141500 23005KT P6SM VCSH BKN010
Voir NOTAMs / SUP AIP / TFR affectant cet aéroport [VIEW]
Fréquences de communication: [VIEW]

Pistes:

Identifiant RWYQFULongueur (ft)Largeur (ft)SurfaceLDA (ft)
0424°250050ASPH
22204°250050ASPH

Coordonnées de l'aéroport

Adresse: Factoryville United States

Autres services d'aviation

Écoles de pilotage

Endless Mountains Air, Inc.

Endless Mountains Air, Inc.

Vue satellite de 9N3